createdAt,value
2023-05-02T00:06:02.439Z,5.50
2023-05-02T00:19:02.421Z,5.50
2023-05-02T00:32:02.400Z,6.00
2023-05-02T00:45:02.445Z,4.80
2023-05-02T00:58:02.429Z,4.60
2023-05-02T01:11:02.423Z,4.70
2023-05-02T01:24:02.427Z,4.00
2023-05-02T01:37:02.428Z,4.00
2023-05-02T01:50:02.548Z,4.30
2023-05-02T02:03:02.507Z,3.90
2023-05-02T02:16:02.497Z,3.50
2023-05-02T02:29:02.478Z,3.75
2023-05-02T02:42:02.465Z,3.40
2023-05-02T02:55:02.481Z,3.20
2023-05-02T03:08:02.485Z,3.00
2023-05-02T03:21:02.486Z,3.20
2023-05-02T03:34:02.520Z,3.50
2023-05-02T03:47:02.536Z,2.60
2023-05-02T04:00:02.676Z,2.70
2023-05-02T04:14:02.514Z,2.50
2023-05-02T04:28:02.504Z,2.60
2023-05-02T04:42:02.520Z,2.30
2023-05-02T04:56:02.537Z,2.90
2023-05-02T05:10:02.813Z,2.20
2023-05-02T05:24:02.561Z,2.10
2023-05-02T05:38:02.538Z,2.30
2023-05-02T05:52:02.519Z,2.00
2023-05-02T06:06:02.667Z,1.70
2023-05-02T06:20:02.705Z,2.30
2023-05-02T06:34:02.561Z,2.70
2023-05-02T06:48:02.710Z,1.80
2023-05-02T07:02:05.116Z,1.90
2023-05-02T07:16:02.578Z,1.70
2023-05-02T07:30:02.890Z,1.40
2023-05-02T07:44:02.590Z,15.70
2023-05-02T07:58:02.602Z,17.45
2023-05-02T08:12:02.591Z,17.70
2023-05-02T08:26:02.593Z,19.40
2023-05-02T08:40:02.944Z,14.50
2023-05-02T08:54:02.604Z,14.60
2023-05-02T09:08:02.608Z,14.60
2023-05-02T09:22:02.615Z,13.90
2023-05-02T09:36:02.645Z,12.95
2023-05-02T09:50:02.638Z,10.50
2023-05-02T10:04:02.663Z,9.50
2023-05-02T10:18:02.664Z,15.20
2023-05-02T10:32:02.824Z,10.00
2023-05-02T10:46:02.788Z,7.50
2023-05-02T11:00:02.655Z,7.20
2023-05-02T11:14:02.662Z,7.90
2023-05-02T11:28:02.653Z,7.00
2023-05-02T11:42:02.668Z,6.50
2023-05-02T11:56:02.667Z,7.60
2023-05-02T12:10:02.668Z,5.20
2023-05-02T12:24:02.687Z,7.20
2023-05-02T12:38:02.672Z,5.80
2023-05-02T12:52:02.685Z,4.60
2023-05-02T13:06:02.757Z,7.30
2023-05-02T13:20:02.840Z,4.40
2023-05-02T13:34:02.699Z,3.40
2023-05-02T13:48:02.787Z,3.20
2023-05-02T14:02:02.759Z,4.50
2023-05-02T14:16:02.714Z,3.00
2023-05-02T14:30:02.961Z,3.70
2023-05-02T14:44:02.717Z,8.70
2023-05-02T14:58:02.736Z,6.50
2023-05-02T15:12:02.743Z,6.30
2023-05-02T15:26:02.734Z,6.60
2023-05-02T15:40:02.870Z,8.00
2023-05-02T15:54:02.734Z,11.15
2023-05-02T16:08:02.748Z,8.80
2023-05-02T16:22:02.738Z,8.60
2023-05-02T16:36:02.771Z,8.50
2023-05-02T16:50:03.021Z,6.20
2023-05-02T17:04:02.761Z,8.75
2023-05-02T17:18:02.819Z,8.70
2023-05-02T17:32:02.803Z,8.30
2023-05-02T17:47:02.784Z,8.25
2023-05-02T18:01:02.781Z,6.80
2023-05-02T18:15:03.101Z,8.80
2023-05-02T18:29:02.792Z,7.40
2023-05-02T18:43:02.806Z,6.30
2023-05-02T18:57:02.809Z,6.50
2023-05-02T19:10:02.824Z,10.60
2023-05-02T19:23:15.143Z,8.00
2023-05-02T19:36:02.838Z,30.00
2023-05-02T19:49:02.860Z,26.50
2023-05-02T20:02:02.851Z,28.10
2023-05-02T20:15:02.901Z,32.30
2023-05-02T20:28:02.927Z,32.50
2023-05-02T20:41:02.913Z,33.50
2023-05-02T20:54:02.962Z,29.60
2023-05-02T21:07:02.963Z,30.20
2023-05-02T21:20:03.204Z,26.30
2023-05-02T21:33:03.000Z,25.10
2023-05-02T21:46:02.961Z,23.60
2023-05-02T21:59:02.992Z,23.00
2023-05-02T22:12:02.979Z,22.90
2023-05-02T22:25:03.001Z,19.75
2023-05-02T22:38:02.991Z,19.80
2023-05-02T22:51:03.008Z,16.80
2023-05-02T23:04:03.056Z,16.70
2023-05-02T23:17:02.991Z,15.30
2023-05-02T23:30:03.163Z,13.70
2023-05-02T23:43:03.008Z,13.00
2023-05-02T23:56:03.025Z,13.20
